Time;durP1;ratioP1;P1;durP2;ratioP2;P2;SDS_P1;SDS_P2;PMS_P1;PMS_P2;Temp;Humidity;BMP_temperature;BMP_pressure;BME280_temperature;BME280_humidity;BME280_pressure;Samples;Min_cycle;Max_cycle;Signal;HPM_P1;HPM_P2
2021/05/06 00:04:52;;;;;;;4.07;3.63;;;;;;;13.63;100.00;94463.75;5153384;27;20520;-87
2021/05/06 00:32:20;;;;;;;4.67;4.20;;;;;;;13.85;100.00;94392.81;5140407;27;20190;-87
2021/05/06 00:34:47;;;;;;;4.67;3.77;;;;;;;13.67;100.00;94365.41;5151714;27;20568;-86
2021/05/06 00:37:17;;;;;;;6.27;4.00;;;;;;;13.63;100.00;94314.09;5151188;27;20191;-87
2021/05/06 00:39:48;;;;;;;5.00;4.37;;;;;;;13.68;100.00;94281.75;5151489;27;20220;-87
2021/05/06 00:56:24;;;;;;;3.90;3.60;;;;;;;13.27;100.00;94191.81;5151183;27;20174;-87
2021/05/06 01:01:41;;;;;;;4.20;3.80;;;;;;;12.80;100.00;93951.75;5151288;27;20729;-87
2021/05/06 01:07:03;;;;;;;8.30;4.20;;;;;;;13.02;100.00;93970.44;5150435;27;20194;-87
2021/05/06 01:09:36;;;;;;;4.47;3.70;;;;;;;12.83;100.00;93919.66;5150513;27;20199;-87
2021/05/06 01:12:04;;;;;;;3.70;3.40;;;;;;;12.90;100.00;93906.38;5150910;27;20221;-87
2021/05/06 01:14:32;;;;;;;5.17;4.67;;;;;;;12.93;100.00;93915.66;5143500;27;20199;-86
2021/05/06 01:16:59;;;;;;;3.90;3.50;;;;;;;13.04;100.00;93931.47;5136575;27;20783;-87
2021/05/06 01:19:26;;;;;;;7.60;3.90;;;;;;;12.95;100.00;93948.66;5136513;27;20693;-87
2021/05/06 01:21:55;;;;;;;4.63;4.13;;;;;;;12.86;100.00;93910.50;5136892;27;20245;-87
2021/05/06 01:24:23;;;;;;;4.23;3.80;;;;;;;13.17;100.00;93905.88;5136521;27;20285;-87
2021/05/06 01:26:56;;;;;;;6.07;4.37;;;;;;;13.14;100.00;93932.72;5136574;27;20194;-86
2021/05/06 01:29:26;;;;;;;5.57;4.50;;;;;;;13.21;100.00;93959.78;5136717;27;20187;-86
2021/05/06 01:32:00;;;;;;;5.00;4.43;;;;;;;13.01;100.00;93978.56;5136628;27;20222;-86
2021/05/06 01:34:27;;;;;;;6.03;3.87;;;;;;;13.23;100.00;93969.06;5136289;27;20211;-86
2021/05/06 01:36:59;;;;;;;4.27;3.97;;;;;;;13.41;100.00;94005.09;5136084;27;20247;-86
2021/05/06 01:39:50;;;;;;;7.97;4.77;;;;;;;13.39;100.00;93980.75;5136255;27;20182;-86
2021/05/06 01:42:19;;;;;;;6.10;5.33;;;;;;;13.46;100.00;93949.78;5136183;27;20739;-86
2021/05/06 01:47:44;;;;;;;5.27;4.73;;;;;;;13.29;100.00;93989.25;5073066;28;20284;-86
2021/05/06 02:01:09;;;;;;;10.30;6.27;;;;;;;13.49;100.00;93953.78;5135843;27;20301;-86
2021/05/06 02:03:37;;;;;;;7.10;6.03;;;;;;;13.52;100.00;93937.50;5135512;27;20269;-86
2021/05/06 02:06:04;;;;;;;4.90;4.50;;;;;;;13.49;100.00;93909.72;5135722;27;20191;-87
2021/05/06 02:08:32;;;;;;;5.33;4.93;;;;;;;13.45;100.00;93876.13;5135727;27;20194;-87
2021/05/06 02:11:01;;;;;;;5.80;5.30;;;;;;;13.60;100.00;93823.63;5135500;27;20194;-87
2021/05/06 02:13:29;;;;;;;6.97;6.27;;;;;;;13.55;100.00;93807.72;5135515;27;20282;-87
2021/05/06 02:15:58;;;;;;;5.63;5.03;;;;;;;13.46;100.00;93819.69;5135508;27;20206;-87
2021/05/06 02:18:25;;;;;;;10.93;6.20;;;;;;;13.39;100.00;93811.91;5135580;27;20327;-87
2021/05/06 02:20:53;;;;;;;5.70;5.20;;;;;;;13.50;100.00;93807.63;5135535;27;20270;-86
2021/05/06 02:23:20;;;;;;;4.80;4.40;;;;;;;13.41;100.00;93838.06;5135802;27;20215;-87
2021/05/06 02:25:48;;;;;;;5.30;4.90;;;;;;;13.35;100.00;93849.56;5134585;27;20564;-87
2021/05/06 02:28:15;;;;;;;5.20;4.40;;;;;;;13.64;100.00;93827.38;5135205;27;20206;-87
2021/05/06 02:30:42;;;;;;;5.53;4.80;;;;;;;13.63;100.00;93907.63;5135127;27;20195;-87
2021/05/06 02:33:09;;;;;;;4.53;4.10;;;;;;;13.50;100.00;93960.66;5135375;27;20190;-86
2021/05/06 02:35:38;;;;;;;6.27;4.80;;;;;;;13.47;100.00;93947.94;5135069;27;20281;-87
2021/05/06 02:38:05;;;;;;;4.20;3.80;;;;;;;13.59;100.00;93971.66;5135384;27;20634;-87
2021/05/06 02:40:32;;;;;;;5.10;4.60;;;;;;;13.57;100.00;93993.00;5134873;27;20191;-86
2021/05/06 02:43:00;;;;;;;4.63;4.23;;;;;;;13.42;100.00;94019.88;5134881;27;20229;-86
2021/05/06 02:45:28;;;;;;;4.33;3.93;;;;;;;13.39;100.00;93993.94;5135191;27;20194;-86
2021/05/06 02:47:55;;;;;;;4.23;3.93;;;;;;;13.49;100.00;94002.09;5135013;27;20238;-86
2021/05/06 02:50:23;;;;;;;3.97;3.67;;;;;;;13.65;100.00;94028.81;5135224;27;20202;-86
2021/05/06 02:52:57;;;;;;;3.87;3.47;;;;;;;13.61;100.00;94086.50;5134582;27;20191;-86
2021/05/06 02:55:30;;;;;;;5.93;3.93;;;;;;;13.52;100.00;94098.47;5135204;27;20198;-87
2021/05/06 02:58:02;;;;;;;4.20;3.80;;;;;;;13.54;100.00;94096.38;5134809;27;20220;-87
2021/05/06 03:03:26;;;;;;;6.30;4.27;;;;;;;13.55;100.00;94138.41;5071367;28;20225;-86
2021/05/06 03:05:55;;;;;;;4.43;4.07;;;;;;;13.72;100.00;94093.66;5119671;27;20195;-86
2021/05/06 03:08:25;;;;;;;4.50;3.87;;;;;;;13.68;100.00;94118.06;5134495;27;20284;-87
2021/05/06 03:11:04;;;;;;;5.50;4.37;;;;;;;13.31;100.00;94097.19;5134861;27;20623;-87
2021/05/06 03:24:40;;;;;;;8.30;4.80;;;;;;;12.76;100.00;93750.28;5134202;27;20193;-87
2021/05/06 03:27:10;;;;;;;5.93;4.60;;;;;;;12.73;100.00;93771.84;5134084;27;20187;-87
2021/05/06 03:29:40;;;;;;;5.43;4.93;;;;;;;12.95;100.00;93766.72;5134087;27;20244;-87
2021/05/06 03:32:22;;;;;;;4.53;4.13;;;;;;;13.14;100.00;93779.75;5134119;27;20239;-87
2021/05/06 03:35:16;;;;;;;4.43;4.13;;;;;;;13.14;100.00;93827.22;5134033;27;20214;-87
2021/05/06 03:43:22;;;;;;;10.97;6.53;;;;;;;13.08;100.00;93858.75;5134308;27;20216;-87
2021/05/06 03:46:14;;;;;;;5.00;4.53;;;;;;;13.35;100.00;93970.91;5134184;27;20200;-87
2021/05/06 04:14:23;;;;;;;7.83;3.40;;;;;;;14.01;100.00;94738.19;5134156;28;20241;-85
2021/05/06 04:16:40;;;;;;;3.20;2.90;;;;;;;14.07;100.00;94802.56;5149759;27;20191;-86
2021/05/06 04:19:13;;;;;;;3.57;3.13;;;;;;;13.94;100.00;94806.13;5133576;27;20633;-86
2021/05/06 04:21:43;;;;;;;4.10;3.43;;;;;;;13.93;100.00;94815.88;5133836;27;20195;-86
2021/05/06 04:27:07;;;;;;;3.93;2.60;;;;;;;13.95;100.00;94848.16;5133740;28;20182;-86
2021/05/06 04:30:05;;;;;;;4.10;3.17;;;;;;;13.94;100.00;94872.94;5133508;27;20198;-86
2021/05/06 04:38:00;;;;;;;3.47;2.80;;;;;;;13.92;100.00;94914.59;5133307;28;20174;-86
2021/05/06 04:40:38;;;;;;;4.10;2.60;;;;;;;13.94;100.00;94957.47;5133951;27;20225;-86
2021/05/06 04:46:20;;;;;;;6.27;2.90;;;;;;;14.04;100.00;95017.78;5133749;28;20251;-87
2021/05/06 04:54:28;;;;;;;3.20;2.90;;;;;;;14.19;100.00;95080.91;5137189;27;20658;-86
2021/05/06 04:57:08;;;;;;;2.83;2.60;;;;;;;14.20;100.00;95098.38;5137113;27;20621;-86
2021/05/06 05:05:04;;;;;;;2.93;2.63;;;;;;;14.58;100.00;95187.53;5137021;27;20178;-86
2021/05/06 05:07:34;;;;;;;3.83;2.10;;;;;;;14.66;100.00;95219.06;5136840;27;20705;-86
2021/05/06 05:10:15;;;;;;;2.70;2.50;;;;;;;14.80;100.00;95244.44;5137174;27;20194;-86
2021/05/06 05:18:21;;;;;;;2.53;2.33;;;;;;;15.09;100.00;95272.16;5136712;27;20198;-86
2021/05/06 05:21:13;;;;;;;4.77;2.33;;;;;;;15.26;100.00;95263.75;5133006;27;20281;-86
2021/05/06 05:23:42;;;;;;;3.50;2.20;;;;;;;15.38;100.00;95350.25;5136350;27;20292;-86
2021/05/06 05:26:11;;;;;;;3.53;1.90;;;;;;;15.63;100.00;95382.09;5136192;27;20234;-85
2021/05/06 05:28:38;;;;;;;3.37;2.43;;;;;;;15.85;100.00;95430.31;5136017;27;20259;-86
2021/05/06 05:31:05;;;;;;;3.73;2.60;;;;;;;15.96;100.00;95446.56;5136201;27;20289;-86
2021/05/06 05:33:36;;;;;;;4.33;2.10;;;;;;;16.14;100.00;95475.81;5135905;27;20214;-86
2021/05/06 05:36:09;;;;;;;3.37;2.30;;;;;;;16.35;100.00;95527.75;5135735;27;20193;-85
2021/05/06 05:38:41;;;;;;;6.47;4.40;;;;;;;16.36;100.00;95538.13;5136109;27;20191;-85
2021/05/06 05:41:32;;;;;;;9.00;5.57;;;;;;;16.54;100.00;95540.06;5136142;27;20181;-86
2021/05/06 05:44:22;;;;;;;4.40;3.07;;;;;;;16.74;100.00;95582.41;5135596;27;20778;-86
2021/05/06 05:55:08;;;;;;;3.27;2.83;;;;;;;17.30;100.00;95687.03;5136266;27;20306;-85
2021/05/06 05:57:35;;;;;;;7.90;2.60;;;;;;;17.48;100.00;95683.63;5135362;27;20225;-82
2021/05/06 06:00:03;;;;;;;2.00;1.83;;;;;;;17.46;100.00;95725.56;5134701;27;20285;-82
2021/05/06 06:02:30;;;;;;;3.17;2.90;;;;;;;17.61;100.00;95730.56;5134543;27;20262;-82
2021/05/06 06:04:57;;;;;;;6.30;2.57;;;;;;;17.66;100.00;95750.13;5134830;27;20190;-83
2021/05/06 06:07:24;;;;;;;5.27;4.37;;;;;;;17.88;100.00;95761.25;5135477;27;20579;-83
2021/05/06 06:09:51;;;;;;;4.77;3.50;;;;;;;18.07;100.00;95756.78;5134744;27;20252;-82
2021/05/06 06:12:18;;;;;;;3.10;2.60;;;;;;;18.22;100.00;95772.41;5135010;27;20195;-84
2021/05/06 06:14:50;;;;;;;4.77;3.23;;;;;;;18.21;100.00;95779.56;5134723;27;20233;-84
2021/05/06 06:17:18;;;;;;;5.13;2.60;;;;;;;18.47;100.00;95785.69;5135020;27;20215;-83
2021/05/06 06:19:48;;;;;;;6.13;3.00;;;;;;;18.47;100.00;95815.78;5134970;27;20187;-84
2021/05/06 06:22:18;;;;;;;2.43;2.23;;;;;;;18.45;100.00;95811.69;5135162;27;20232;-84
2021/05/06 06:24:44;;;;;;;3.27;3.00;;;;;;;18.73;100.00;95824.56;5134694;27;20363;-85
2021/05/06 06:27:12;;;;;;;6.57;3.03;;;;;;;18.63;100.00;95830.34;5134831;27;20198;-84
2021/05/06 06:29:39;;;;;;;2.33;2.13;;;;;;;18.79;100.00;95828.19;5135242;27;20636;-84
2021/05/06 06:32:09;;;;;;;6.27;2.80;;;;;;;19.14;100.00;95826.56;5134666;27;20383;-84
2021/05/06 06:34:37;;;;;;;2.80;2.30;;;;;;;19.36;100.00;95831.41;5134687;27;20703;-84
2021/05/06 06:37:04;;;;;;;3.30;2.40;;;;;;;19.33;100.00;95854.03;5134840;27;20244;-85
2021/05/06 06:39:31;;;;;;;3.37;2.10;;;;;;;19.20;100.00;95854.97;5134810;27;20202;-84
2021/05/06 06:41:58;;;;;;;8.00;2.67;;;;;;;19.19;100.00;95871.22;5134713;27;20205;-83
2021/05/06 06:44:27;;;;;;;2.53;2.07;;;;;;;19.32;100.00;95860.38;5134389;27;20301;-84
2021/05/06 06:47:04;;;;;;;3.10;2.33;;;;;;;19.44;100.00;95863.13;5134545;27;20222;-85
2021/05/06 06:49:32;;;;;;;4.40;2.47;;;;;;;19.70;100.00;95877.97;5134481;27;20269;-84
2021/05/06 06:52:01;;;;;;;2.17;2.00;;;;;;;20.06;100.00;95882.41;5134575;27;20198;-85
2021/05/06 06:54:28;;;;;;;3.93;2.40;;;;;;;20.07;100.00;95886.69;5134737;27;20651;-85
2021/05/06 06:56:55;;;;;;;4.80;2.23;;;;;;;20.38;100.00;95898.97;5135256;27;20247;-92
2021/05/06 06:59:22;;;;;;;2.30;2.10;;;;;;;20.32;100.00;95907.88;5134731;27;20306;-84
2021/05/06 07:01:49;;;;;;;3.83;2.97;;;;;;;20.41;100.00;95906.50;5134182;27;20234;-85
2021/05/06 07:04:16;;;;;;;5.03;2.90;;;;;;;20.36;100.00;95909.03;5133843;27;20363;-85
2021/05/06 07:06:43;;;;;;;2.40;2.20;;;;;;;20.48;100.00;95898.41;5134305;27;20273;-85
2021/05/06 07:09:11;;;;;;;8.90;3.20;;;;;;;20.64;100.00;95904.94;5134199;27;20581;-84
2021/05/06 07:11:38;;;;;;;2.73;2.03;;;;;;;20.62;100.00;95907.84;5133774;27;20575;-83
2021/05/06 07:14:06;;;;;;;4.00;2.90;;;;;;;20.49;100.00;95918.72;5133532;27;20278;-84
2021/05/06 07:16:33;;;;;;;2.57;2.20;;;;;;;20.48;100.00;95919.75;5134343;27;20637;-84
2021/05/06 07:19:00;;;;;;;3.13;2.50;;;;;;;21.06;100.00;95912.84;5133566;27;20679;-83
2021/05/06 07:21:27;;;;;;;3.70;2.40;;;;;;;21.45;100.00;95934.59;5133696;27;20191;-83
2021/05/06 07:23:55;;;;;;;4.67;2.60;;;;;;;21.71;100.00;95938.59;5133698;27;20225;-84
2021/05/06 07:26:24;;;;;;;2.67;2.33;;;;;;;21.87;100.00;95935.19;5133595;27;20194;-84
2021/05/06 07:28:53;;;;;;;2.67;2.40;;;;;;;21.41;100.00;95952.97;5133697;27;20632;-83
2021/05/06 07:31:21;;;;;;;4.70;2.27;;;;;;;21.58;100.00;95948.53;5134021;27;20577;-84
2021/05/06 07:33:49;;;;;;;3.03;2.30;;;;;;;21.91;100.00;95948.91;5133496;27;20632;-83
2021/05/06 07:36:17;;;;;;;2.23;2.03;;;;;;;21.45;100.00;95964.81;5133828;27;20195;-84
2021/05/06 07:38:44;;;;;;;3.53;2.10;;;;;;;21.54;100.00;95957.22;5133541;27;20198;-84
2021/05/06 07:41:12;;;;;;;2.97;2.00;;;;;;;21.87;100.00;95953.91;5133542;27;20220;-83
2021/05/06 07:43:42;;;;;;;2.83;2.63;;;;;;;22.14;100.00;95972.91;5133266;27;20218;-83
2021/05/06 07:46:09;;;;;;;2.67;2.27;;;;;;;22.25;100.00;95987.31;5133322;27;20230;-84
2021/05/06 07:48:36;;;;;;;2.60;2.40;;;;;;;22.31;100.00;95986.38;5133351;27;20234;-84
2021/05/06 07:51:03;;;;;;;3.93;2.20;;;;;;;22.12;100.00;95991.06;5133505;27;20676;-84
2021/05/06 07:53:38;;;;;;;2.97;2.27;;;;;;;22.15;100.00;95995.97;5133548;27;20199;-84
2021/05/06 07:56:05;;;;;;;2.70;2.37;;;;;;;22.36;100.00;96002.53;5133443;27;20555;-84
2021/05/06 07:58:32;;;;;;;2.27;2.17;;;;;;;22.80;100.00;96002.78;5133555;27;20238;-84
2021/05/06 08:01:00;;;;;;;3.10;2.17;;;;;;;23.01;100.00;96004.78;5133288;27;20281;-84
2021/05/06 08:03:27;;;;;;;2.93;2.10;;;;;;;22.55;100.00;96013.88;5132756;27;20282;-84
2021/05/06 08:05:56;;;;;;;4.47;2.33;;;;;;;22.86;100.00;96009.84;5133126;27;20238;-84
2021/05/06 08:08:24;;;;;;;3.80;2.30;;;;;;;22.53;100.00;96021.31;5133002;27;20194;-85
2021/05/06 08:10:51;;;;;;;2.23;2.10;;;;;;;22.41;100.00;96029.41;5133505;27;20281;-84
2021/05/06 08:13:21;;;;;;;2.47;2.27;;;;;;;22.59;100.00;96024.91;5133251;27;20183;-85
2021/05/06 08:15:48;;;;;;;3.90;2.07;;;;;;;23.37;100.00;96008.00;5132766;27;20247;-84
2021/05/06 08:18:15;;;;;;;2.27;1.97;;;;;;;23.16;100.00;96008.75;5132988;27;20662;-84
2021/05/06 08:20:43;;;;;;;4.03;1.93;;;;;;;22.61;100.00;96023.59;5132944;27;20238;-85
2021/05/06 08:23:10;;;;;;;2.30;2.10;;;;;;;22.52;100.00;96030.41;5129700;27;20279;-83
2021/05/06 08:25:37;;;;;;;4.13;2.23;;;;;;;22.79;100.00;96027.94;5135984;27;20644;-84
2021/05/06 08:28:05;;;;;;;2.37;2.17;;;;;;;23.09;100.00;96013.47;5136839;27;20194;-84
2021/05/06 08:30:33;;;;;;;2.50;2.30;;;;;;;22.78;100.00;96042.38;5136939;27;20237;-84
2021/05/06 08:32:59;;;;;;;3.97;1.97;;;;;;;23.00;100.00;96031.81;5136776;27;20199;-85
2021/05/06 08:35:27;;;;;;;3.87;2.10;;;;;;;22.87;100.00;96034.78;5136791;27;20277;-84
2021/05/06 08:37:54;;;;;;;2.50;2.23;;;;;;;22.64;100.00;96041.88;5136693;27;20281;-84
2021/05/06 08:40:21;;;;;;;4.97;2.13;;;;;;;23.02;100.00;96043.91;5136841;27;20660;-84
2021/05/06 08:42:52;;;;;;;2.73;2.00;;;;;;;23.13;100.00;96036.03;5136038;27;20213;-85
2021/05/06 08:45:19;;;;;;;4.53;2.03;;;;;;;23.77;100.00;96025.78;5135479;27;20228;-83
2021/05/06 08:47:47;;;;;;;3.70;2.10;;;;;;;24.00;100.00;96024.72;5135436;27;20285;-83
2021/05/06 08:50:17;;;;;;;3.20;2.43;;;;;;;23.45;100.00;96031.72;5136366;27;20197;-85
2021/05/06 08:52:48;;;;;;;3.30;1.63;;;;;;;23.59;100.00;96042.09;5135842;27;20183;-85
2021/05/06 08:55:16;;;;;;;2.10;1.90;;;;;;;23.52;100.00;96042.28;5117446;27;20203;-83
2021/05/06 08:57:42;;;;;;;3.10;1.90;;;;;;;24.23;100.00;96020.97;5114893;28;20274;-84
2021/05/06 09:00:11;;;;;;;4.47;2.00;;;;;;;24.37;100.00;96021.41;5115582;28;20671;-85
2021/05/06 09:02:44;;;;;;;3.00;1.90;;;;;;;24.05;100.00;96032.84;5115695;28;20273;-85
2021/05/06 09:05:11;;;;;;;5.70;2.13;;;;;;;23.29;100.00;96029.88;5115788;28;20267;-86
2021/05/06 09:07:43;;;;;;;6.40;1.90;;;;;;;22.84;100.00;96054.81;5116084;28;20226;-85
2021/05/06 09:10:12;;;;;;;3.03;2.10;;;;;;;23.38;100.00;96047.19;5115669;28;20226;-86
2021/05/06 09:12:39;;;;;;;2.33;1.80;;;;;;;22.91;100.00;96049.31;5115565;28;20196;-87
2021/05/06 09:15:13;;;;;;;3.60;1.70;;;;;;;23.12;100.00;96053.19;5115429;28;20207;-86
2021/05/06 09:17:40;;;;;;;2.60;2.10;;;;;;;23.59;100.00;96034.03;5115816;27;20187;-86
2021/05/06 09:20:13;;;;;;;3.27;2.20;;;;;;;23.11;100.00;96036.28;5115530;28;20199;-86
2021/05/06 09:22:42;;;;;;;2.37;2.00;;;;;;;23.61;100.00;96042.69;5115651;28;20187;-86
2021/05/06 09:25:31;;;;;;;2.00;1.90;;;;;;;24.40;100.00;96023.63;5115675;28;20194;-87
2021/05/06 09:28:09;;;;;;;3.50;1.90;;;;;;;24.23;100.00;96028.22;5115302;28;20655;-85
2021/05/06 09:30:37;;;;;;;3.70;2.00;;;;;;;23.88;100.00;96032.88;5115640;28;20548;-85
2021/05/06 09:33:06;;;;;;;3.63;1.93;;;;;;;24.49;100.00;96032.84;5114901;28;20238;-85
2021/05/06 09:35:41;;;;;;;2.53;1.83;;;;;;;23.88;100.00;96043.63;5114614;28;20292;-85
2021/05/06 09:38:26;;;;;;;2.77;2.07;;;;;;;24.78;100.00;96040.66;5115107;28;20630;-85
2021/05/06 09:40:55;;;;;;;6.67;2.53;;;;;;;24.26;100.00;96041.97;5115502;28;20643;-85
2021/05/06 09:43:24;;;;;;;2.40;2.20;;;;;;;23.95;100.00;96046.94;5115165;28;20246;-86
2021/05/06 09:45:51;;;;;;;2.43;2.00;;;;;;;23.48;100.00;96052.69;5115305;28;20199;-85
2021/05/06 09:48:20;;;;;;;2.03;1.93;;;;;;;23.05;100.00;96068.63;5115082;28;20291;-86
2021/05/06 09:50:49;;;;;;;4.47;2.67;;;;;;;23.00;100.00;96074.72;5114955;28;20191;-85
2021/05/06 09:53:18;;;;;;;2.43;2.20;;;;;;;23.42;100.00;96064.41;5114803;28;20264;-85
2021/05/06 09:55:47;;;;;;;2.53;2.33;;;;;;;23.66;100.00;96072.28;5114830;28;20376;-86
2021/05/06 09:58:27;;;;;;;2.33;2.20;;;;;;;24.16;100.00;96058.75;5114647;28;20195;-85
2021/05/06 10:00:56;;;;;;;2.03;1.93;;;;;;;24.35;100.00;96061.94;5114913;28;20183;-86
2021/05/06 10:03:30;;;;;;;3.83;2.60;;;;;;;23.81;100.00;96056.41;5114621;28;20274;-86
2021/05/06 10:05:57;;;;;;;8.07;2.73;;;;;;;24.03;100.00;96052.94;5114639;28;20558;-86
2021/05/06 10:08:33;;;;;;;3.00;2.20;;;;;;;24.86;100.00;96043.69;5114607;28;20196;-86
2021/05/06 10:11:08;;;;;;;2.23;2.10;;;;;;;25.06;100.00;96042.25;5114541;28;20191;-86
2021/05/06 10:13:39;;;;;;;3.40;2.17;;;;;;;24.23;100.00;96053.19;5114883;28;20582;-86
2021/05/06 10:16:07;;;;;;;6.40;3.30;;;;;;;24.33;100.00;96049.81;5114438;28;20184;-86
2021/05/06 10:18:37;;;;;;;2.60;2.40;;;;;;;23.67;100.00;96064.00;5114520;28;20230;-86
2021/05/06 10:21:04;;;;;;;3.03;2.50;;;;;;;23.89;100.00;96058.66;5114355;28;20282;-86
2021/05/06 10:23:30;;;;;;;4.20;2.60;;;;;;;23.87;100.00;96058.13;5114073;28;20306;-85
2021/05/06 10:25:58;;;;;;;2.57;2.43;;;;;;;24.23;100.00;96055.06;5114325;28;20231;-86
2021/05/06 10:28:26;;;;;;;2.33;1.90;;;;;;;25.07;100.00;96038.50;5128521;27;20282;-86
2021/05/06 10:30:54;;;;;;;7.27;2.57;;;;;;;24.32;100.00;96054.38;5134300;27;20693;-85
2021/05/06 10:33:24;;;;;;;2.93;2.10;;;;;;;24.06;100.00;96058.63;5114038;28;20231;-86
2021/05/06 10:35:51;;;;;;;2.43;2.23;;;;;;;23.59;100.00;96066.25;5119016;27;20206;-86
2021/05/06 10:38:29;;;;;;;;;;;;;;;;;;;;;
2021/05/06 10:41:31;;;;;;;3.93;1.93;;;;;;;23.31;100.00;96068.00;5148778;27;20273;-85
2021/05/06 10:43:59;;;;;;;2.13;1.90;;;;;;;23.24;100.00;96072.66;5134636;27;20257;-86
2021/05/06 10:46:56;;;;;;;4.07;1.80;;;;;;;23.19;100.00;96075.28;5134608;27;20195;-86
2021/05/06 10:49:23;;;;;;;4.93;1.87;;;;;;;23.33;100.00;96068.53;5134534;27;20199;-87
2021/05/06 10:52:00;;;;;;;2.47;2.27;;;;;;;23.36;100.00;96068.06;5134604;27;20685;-87
2021/05/06 10:54:34;;;;;;;2.40;2.07;;;;;;;23.25;100.00;96082.38;5134764;27;20186;-86
2021/05/06 10:57:03;;;;;;;2.13;1.97;;;;;;;23.12;100.00;96090.72;5134533;27;20248;-86
2021/05/06 10:59:31;;;;;;;1.93;1.73;;;;;;;22.73;100.00;96094.03;5134683;27;20201;-87
2021/05/06 11:01:59;;;;;;;2.57;2.37;;;;;;;22.62;100.00;96086.00;5133954;27;20202;-85
2021/05/06 11:04:35;;;;;;;1.90;1.80;;;;;;;22.93;100.00;96092.78;5133849;27;20679;-86
2021/05/06 11:07:12;;;;;;;5.20;2.20;;;;;;;22.93;100.00;96096.31;5134031;27;20205;-87
2021/05/06 11:09:55;;;;;;;2.10;1.90;;;;;;;23.41;100.00;96078.84;5134599;27;20618;-87
2021/05/06 11:12:31;;;;;;;2.23;2.00;;;;;;;24.04;100.00;96071.50;5134134;27;20233;-87
2021/05/06 11:15:33;;;;;;;2.33;1.93;;;;;;;23.78;100.00;96078.38;5133930;27;20631;-86
2021/05/06 11:18:02;;;;;;;2.13;1.90;;;;;;;23.19;100.00;96091.38;5134049;27;20695;-86
2021/05/06 11:20:47;;;;;;;2.50;1.67;;;;;;;23.05;100.00;96090.88;5133807;27;20754;-86
2021/05/06 11:23:31;;;;;;;3.77;2.10;;;;;;;22.88;100.00;96096.16;5133853;27;20297;-87
2021/05/06 11:26:09;;;;;;;3.30;2.00;;;;;;;23.06;100.00;96089.00;5133941;27;20201;-86
2021/05/06 11:28:51;;;;;;;3.27;1.83;;;;;;;22.91;100.00;96090.31;5133927;27;20278;-86
2021/05/06 11:31:46;;;;;;;3.40;1.90;;;;;;;22.93;100.00;96088.25;5133714;27;20222;-86
2021/05/06 11:34:30;;;;;;;2.77;1.80;;;;;;;22.92;100.00;96091.13;5133599;27;20248;-86
2021/05/06 11:37:24;;;;;;;10.60;7.93;;;;;;;23.28;100.00;96087.25;5134036;27;20297;-87
2021/05/06 11:39:56;;;;;;;2.37;1.90;;;;;;;23.83;100.00;96077.63;5133860;27;20186;-86
2021/05/06 11:42:25;;;;;;;2.87;1.83;;;;;;;23.73;100.00;96086.34;5133692;27;20183;-86
2021/05/06 11:45:12;;;;;;;1.87;1.77;;;;;;;23.34;100.00;96091.59;5133433;27;20310;-86
2021/05/06 11:47:40;;;;;;;2.33;2.13;;;;;;;23.14;100.00;96091.28;5133771;27;20282;-86
2021/05/06 11:50:22;;;;;;;1.90;1.70;;;;;;;23.25;100.00;96080.50;5133521;27;20285;-86
2021/05/06 11:52:49;;;;;;;3.73;1.80;;;;;;;22.90;100.00;96086.03;5133668;27;20189;-85
2021/05/06 11:55:35;;;;;;;3.93;3.50;;;;;;;22.68;100.00;96091.22;5133530;27;20201;-86
2021/05/06 11:58:02;;;;;;;7.47;4.87;;;;;;;22.53;100.00;96094.44;5133138;27;20201;-85
2021/05/06 12:00:31;;;;;;;5.03;2.83;;;;;;;22.71;100.00;96090.75;5133328;27;20247;-86
2021/05/06 12:02:59;;;;;;;2.70;2.50;;;;;;;23.45;100.00;96079.16;5133001;27;20783;-86
2021/05/06 12:05:57;;;;;;;2.67;1.93;;;;;;;23.34;100.00;96088.94;5133275;27;20195;-86
2021/05/06 12:08:26;;;;;;;7.67;6.33;;;;;;;23.18;100.00;96085.19;5133030;27;20189;-85
2021/05/06 12:10:54;;;;;;;3.80;3.50;;;;;;;23.09;100.00;96080.47;5133489;27;20194;-86
2021/05/06 12:13:25;;;;;;;2.73;2.00;;;;;;;23.48;100.00;96068.78;5123009;27;20203;-86
2021/05/06 12:15:53;;;;;;;1.83;1.73;;;;;;;23.52;100.00;96068.28;5112426;28;20615;-86
2021/05/06 12:18:23;;;;;;;5.13;2.70;;;;;;;23.52;100.00;96063.75;5112460;28;20345;-86
2021/05/06 12:20:51;;;;;;;3.80;2.13;;;;;;;23.43;100.00;96062.53;5112464;28;20242;-86
2021/05/06 12:23:18;;;;;;;4.80;1.83;;;;;;;23.38;100.00;96063.28;5112533;28;20219;-86
2021/05/06 12:25:45;;;;;;;2.07;1.93;;;;;;;23.24;100.00;96056.59;5112138;28;20234;-86
2021/05/06 12:28:11;;;;;;;6.07;2.13;;;;;;;23.01;100.00;96074.47;5111730;28;20240;-85
2021/05/06 12:30:38;;;;;;;4.07;2.50;;;;;;;22.70;100.00;96074.94;5112093;28;20242;-85
2021/05/06 12:33:07;;;;;;;3.20;2.73;;;;;;;22.90;100.00;96067.25;5112263;28;20195;-86
2021/05/06 12:35:48;;;;;;;2.70;2.10;;;;;;;22.90;100.00;96067.25;5112611;28;20195;-86
2021/05/06 12:38:15;;;;;;;1.97;1.87;;;;;;;22.94;100.00;96071.13;5112091;28;20188;-86
2021/05/06 12:40:43;;;;;;;2.20;2.03;;;;;;;23.87;100.00;96060.78;5111878;28;20198;-86
2021/05/06 12:43:30;;;;;;;2.93;2.30;;;;;;;24.56;100.00;96040.69;5112329;28;20720;-87
2021/05/06 12:46:01;;;;;;;2.30;1.57;;;;;;;24.66;100.00;96025.50;5112512;28;20585;-86
2021/05/06 12:48:44;;;;;;;2.10;1.70;;;;;;;24.82;100.00;96039.09;5112408;28;20218;-86
2021/05/06 12:51:13;;;;;;;2.80;1.80;;;;;;;25.26;100.00;96026.34;5112461;28;20296;-86
2021/05/06 12:53:59;;;;;;;2.93;1.80;;;;;;;25.21;100.00;96028.97;5111682;28;20283;-86
2021/05/06 12:56:27;;;;;;;1.70;1.60;;;;;;;25.48;100.00;96025.41;5111946;28;20274;-86
2021/05/06 12:58:56;;;;;;;3.20;1.93;;;;;;;25.33;100.00;96035.00;5112075;28;20195;-85
2021/05/06 13:01:31;;;;;;;2.03;1.83;;;;;;;25.55;100.00;96018.72;5111813;28;20188;-86
2021/05/06 13:04:03;;;;;;;3.80;1.73;;;;;;;25.60;100.00;96018.78;5111186;28;20699;-85
2021/05/06 13:06:34;;;;;;;3.47;2.50;;;;;;;25.72;100.00;96010.47;5111445;28;20183;-86
2021/05/06 13:09:02;;;;;;;1.93;1.73;;;;;;;25.24;100.00;96020.38;5111613;28;20196;-86
2021/05/06 13:11:29;;;;;;;2.03;1.80;;;;;;;25.07;100.00;96022.38;5114753;28;20682;-86
2021/05/06 13:13:59;;;;;;;2.00;1.80;;;;;;;25.20;100.00;96010.41;5115286;28;20187;-85
2021/05/06 13:16:42;;;;;;;3.63;2.10;;;;;;;25.40;100.00;96009.75;5115867;28;20299;-85
2021/05/06 13:19:13;;;;;;;1.97;1.87;;;;;;;25.85;100.00;96001.16;5115169;28;20188;-86
2021/05/06 13:21:47;;;;;;;2.97;2.50;;;;;;;25.55;100.00;96007.97;5115339;28;20623;-86
2021/05/06 13:24:14;;;;;;;2.03;1.90;;;;;;;25.38;100.00;96008.13;5115418;28;20676;-85
2021/05/06 13:26:44;;;;;;;4.40;2.47;;;;;;;25.18;100.00;96015.22;5115071;28;20238;-86
2021/05/06 13:29:14;;;;;;;2.50;2.13;;;;;;;25.29;100.00;96012.38;5115729;28;20206;-86
2021/05/06 13:31:42;;;;;;;2.93;1.97;;;;;;;24.87;100.00;96021.16;5115174;28;20197;-86
2021/05/06 13:34:14;;;;;;;3.97;3.67;;;;;;;25.11;100.00;96018.13;5115111;28;20192;-85
2021/05/06 13:36:42;;;;;;;4.20;3.77;;;;;;;25.22;100.00;96001.03;5114507;28;20180;-87
2021/05/06 13:39:11;;;;;;;2.67;2.00;;;;;;;24.60;100.00;96009.59;5115198;28;20199;-88
2021/05/06 13:41:40;;;;;;;7.40;2.33;;;;;;;24.34;100.00;96009.28;5115764;28;20202;-87
2021/05/06 13:44:08;;;;;;;2.93;2.43;;;;;;;24.11;100.00;96005.00;5115934;28;20656;-89
2021/05/06 13:46:44;;;;;;;2.17;2.07;;;;;;;24.19;100.00;95999.19;5115645;28;20195;-87
2021/05/06 13:49:13;;;;;;;3.67;2.60;;;;;;;23.78;100.00;96003.22;5122134;27;20577;-86
2021/05/06 13:51:40;;;;;;;2.73;2.53;;;;;;;23.78;100.00;96008.59;5135610;27;20674;-88
2021/05/06 13:54:07;;;;;;;6.13;2.50;;;;;;;23.26;100.00;96027.66;5135683;27;20206;-87
2021/05/06 13:56:34;;;;;;;2.10;2.00;;;;;;;23.78;100.00;96019.34;5135871;27;21097;-87
2021/05/06 13:59:01;;;;;;;2.10;2.00;;;;;;;24.01;100.00;96012.13;5136056;27;20194;-87
2021/05/06 14:01:28;;;;;;;2.90;2.50;;;;;;;23.91;100.00;96018.16;5136059;27;20578;-87
2021/05/06 14:03:54;;;;;;;3.57;2.17;;;;;;;23.50;100.00;96022.94;5135329;27;20345;-86
2021/05/06 14:06:22;;;;;;;2.40;1.80;;;;;;;23.17;100.00;96031.81;5135877;27;20194;-86
2021/05/06 14:08:49;;;;;;;2.37;2.17;;;;;;;22.98;100.00;96037.41;5135412;27;20231;-86